Airfield :
LOGIN :

Register | Disclaimer

   EN    FR    IT 

 










Legend :    VFR   Marginal VFR   IFR   Intensive IFR   Very Intensive IFR
Visi :
Ceiling :
>= 8 km
>= 3000ft
5 to 8 km
1000 to 3000 ft
1500m to 5 km
500 to 1000 ft
800 to 1500m
200 to 500 ft
< 800m
< 200 ft
Symbols :   Thunderstorms  Fog  Heavy snow  Heavy precipitations  Wind > 20 kt
SIGMETs :     Misc.  Thunderstorms  Icing  Turbulence  Mountain Waves  Volcanic Ashes







- Airport Elevation : 19 ft
- IATA code : LCY
- Download approach charts


EGLC - London City

CURRENT METAR :
  • 250420Z AUTO 24011KT 9999 BKN046 10/07 Q1010

EXPIRED METARs :
  • 250350Z AUTO 26010KT 9999 SCT021 SCT026 10/06 Q1010
  • 250320Z AUTO 27012KT 9999 SCT043 11/06 Q1010
  • 250250Z AUTO 27015KT 9999 NCD 11/06 Q1010
  • 250220Z AUTO 28011KT 9999 FEW024 SCT031 BKN037 11/07 Q1010
  • 250150Z AUTO 29013G25KT 9999 BKN019 OVC039 12/08 Q1009

TAF TAF EGLC
Valid from the 25 at 03:00 until the 25 at 12:00 UTC


250207Z 2503/2512 26012KT 9000 FEW018 SCT020
BECMG 2503/2506 9999
PROB30
TEMPO 2510/2512 27015G25KT 7000 SHRA
ATIS : +44 20 7646 0224
No reported NOTAMs for that airfield.



MET'MAP, your aeronautical weather chart ! - Copyright ORBIFLY December 2007 - Disclaimer

ORBIFLY MET'MAP TEAM :

Programming & Development : Alexandra Zaïnal
Concept & Development : Baudouin d'Aumeries
Co-Development & Prog : Marc-Olivier Méhu
Technical & hardware support : Manuel Goepfert

Contact : metmap@orbifly.com




SOURCES & CREDITS :

   NOAA